Adams, North Carolina
Current Conditions -  °F | °C
As of 6:35 PM on Monday 22 Dec 2014 (Local Time) from KTNB Reporting Station
Haze Haze  
Wind Chill: -1°   Ceiling: 100
Heat Index:   Visibility: 0.75mi
Dew Point:   Wind: 5mph
Humidity: 100%   Direction: 100°E
Pressure: 29.98"   Gusts: NA
Location:  36.2085°N, 81.6605°W
Report Text: KTNB 222335Z AUTO 10004KT 3/4SM BR OVC001 02/02 A2998 RMK AO2 LTG DSNT SW T00160016
Loading
Personal Weather Stations






























Interactive Weather Map New forecast layout! Learn more

10-Day Weather Forecast

Advertisements
Track Severe Weather on mobile